Time,TemperatureF,DewpointF,PressureIn,WindDirection,WindDirectionDegrees,WindSpeedMPH,WindSpeedGustMPH,Humidity,HourlyPrecipIn,Conditions,Clouds,dailyrainin,SolarRadiationWatts/m^2,SoftwareType,DateUTC
2013-06-10 00:00:00,58.2,54.0,29.88,WNW,290,1.0,1.0,86,0.00,,,0.00,0,Wunderground v.1.15,2013-06-10 07:00:00,
2013-06-10 00:10:00,58.2,54.0,29.89,NNW,335,4.0,4.0,86,0.00,,,0.00,0,Wunderground v.1.15,2013-06-10 07:10:00,
2013-06-10 00:15:00,58.2,53.7,29.89,NW,312,3.0,4.0,85,0.00,,,0.00,0,Wunderground v.1.15,2013-06-10 07:15:00,
2013-06-10 00:25:00,58.1,53.9,29.89,NW,310,10.0,10.0,86,0.00,,,0.00,0,Wunderground v.1.15,2013-06-10 07:25:00,
2013-06-10 00:30:00,58.0,53.5,29.88,WNW,282,3.0,3.0,85,0.00,,,0.00,0,Wunderground v.1.15,2013-06-10 07:30:00,
2013-06-10 00:39:00,57.9,54.4,29.87,West,280,5.0,5.0,88,0.00,,,0.00,0,Wunderground v.1.15,2013-06-10 07:39:00,
2013-06-10 00:45:00,57.8,54.9,29.88,WNW,297,6.0,6.0,90,0.00,,,0.00,0,Wunderground v.1.15,2013-06-10 07:45:00,
2013-06-10 00:50:00,57.8,54.3,29.87,West,267,2.0,2.0,88,0.00,,,0.00,0,Wunderground v.1.15,2013-06-10 07:50:00,
2013-06-10 01:00:00,57.6,53.4,29.86,West,277,2.0,2.0,86,0.00,,,0.00,0,Wunderground v.1.15,2013-06-10 08:00:00,
2013-06-10 01:09:00,57.6,54.1,29.86,WSW,256,0.0,0.0,88,0.00,,,0.00,0,Wunderground v.1.15,2013-06-10 08:09:00,
2013-06-10 01:15:00,57.7,54.2,29.86,WSW,254,1.0,1.0,88,0.00,,,0.00,0,Wunderground v.1.15,2013-06-10 08:15:00,
2013-06-10 01:25:00,57.8,54.3,29.86,WNW,292,4.0,4.0,88,0.00,,,0.00,0,Wunderground v.1.15,2013-06-10 08:25:00,
2013-06-10 01:30:00,57.8,54.3,29.86,NW,311,0.0,0.0,88,0.00,,,0.00,0,Wunderground v.1.15,2013-06-10 08:30:00,
2013-06-10 01:35:00,57.9,54.1,29.87,NW,306,0.0,0.0,87,0.00,,,0.00,0,Wunderground v.1.15,2013-06-10 08:35:00,
2013-06-10 01:40:00,57.9,54.1,29.86,WNW,286,2.0,2.0,87,0.00,,,0.00,0,Wunderground v.1.15,2013-06-10 08:40:00,
2013-06-10 01:50:00,58.0,54.2,29.86,WNW,286,0.0,0.0,87,0.00,,,0.00,0,Wunderground v.1.15,2013-06-10 08:50:00,
2013-06-10 02:00:00,58.0,54.2,29.85,West,266,2.0,2.0,87,0.00,,,0.00,0,Wunderground v.1.15,2013-06-10 09:00:00,
2013-06-10 02:05:00,58.1,53.9,29.86,WNW,296,3.0,3.0,86,0.00,,,0.00,0,Wunderground v.1.15,2013-06-10 09:05:00,
2013-06-10 02:15:00,58.0,53.8,29.85,WSW,249,0.0,0.0,86,0.00,,,0.00,0,Wunderground v.1.15,2013-06-10 09:15:00,
2013-06-10 02:20:00,58.0,53.8,29.85,WNW,295,3.0,3.0,86,0.00,,,0.00,0,Wunderground v.1.15,2013-06-10 09:20:00,
2013-06-10 02:25:00,58.0,53.8,29.86,NW,318,1.0,3.0,86,0.00,,,0.00,0,Wunderground v.1.15,2013-06-10 09:25:00,
2013-06-10 02:35:00,57.9,53.7,29.85,SSW,211,4.0,4.0,86,0.00,,,0.00,0,Wunderground v.1.15,2013-06-10 09:35:00,
2013-06-10 02:40:00,57.8,53.6,29.84,SW,228,0.0,0.0,86,0.00,,,0.00,0,Wunderground v.1.15,2013-06-10 09:40:00,
2013-06-10 02:50:00,57.7,53.2,29.83,SW,218,3.0,3.0,85,0.00,,,0.00,0,Wunderground v.1.15,2013-06-10 09:50:00,
2013-06-10 03:00:00,57.5,53.3,29.84,West,273,1.0,1.0,86,0.00,,,0.00,0,Wunderground v.1.15,2013-06-10 10:00:00,
2013-06-10 03:05:00,57.3,52.8,29.84,WNW,302,3.0,3.0,85,0.00,,,0.00,0,Wunderground v.1.15,2013-06-10 10:05:00,
2013-06-10 03:15:00,57.2,51.4,29.84,West,260,0.0,2.0,81,0.00,,,0.00,0,Wunderground v.1.15,2013-06-10 10:15:00,
2013-06-10 03:20:00,57.1,52.0,29.83,SSW,213,1.0,1.0,83,0.00,,,0.00,0,Wunderground v.1.15,2013-06-10 10:20:00,
2013-06-10 03:25:00,57.1,53.0,29.84,WNW,289,2.0,2.0,86,0.00,,,0.00,0,Wunderground v.1.15,2013-06-10 10:25:00,
2013-06-10 03:30:00,57.2,53.4,29.84,North,1,0.0,0.0,87,0.00,,,0.00,0,Wunderground v.1.15,2013-06-10 10:30:00,
2013-06-10 03:40:00,57.1,53.0,29.84,NW,320,3.0,3.0,86,0.00,,,0.00,0,Wunderground v.1.15,2013-06-10 10:40:00,
2013-06-10 03:50:00,57.2,53.4,29.85,WNW,282,5.0,5.0,87,0.00,,,0.00,0,Wunderground v.1.15,2013-06-10 10:50:00,
2013-06-10 03:55:00,57.2,53.4,29.84,WNW,287,9.0,9.0,87,0.00,,,0.00,0,Wunderground v.1.15,2013-06-10 10:55:00,
2013-06-10 04:05:00,57.4,53.2,29.85,West,277,2.0,2.0,86,0.00,,,0.00,0,Wunderground v.1.15,2013-06-10 11:05:00,
2013-06-10 04:10:00,57.4,53.2,29.85,West,276,3.0,3.0,86,0.00,,,0.00,0,Wunderground v.1.15,2013-06-10 11:10:00,
2013-06-10 04:15:00,57.4,53.2,29.86,NW,305,5.0,5.0,86,0.00,,,0.00,0,Wunderground v.1.15,2013-06-10 11:15:00,
2013-06-10 04:20:00,57.4,53.2,29.86,West,273,0.0,0.0,86,0.00,,,0.00,0,Wunderground v.1.15,2013-06-10 11:20:00,
2013-06-10 04:30:00,57.4,53.2,29.85,WNW,282,4.0,4.0,86,0.00,,,0.00,0,Wunderground v.1.15,2013-06-10 11:30:00,
2013-06-10 04:35:00,57.4,53.2,29.83,WNW,287,8.0,8.0,86,0.00,,,0.00,0,Wunderground v.1.15,2013-06-10 11:35:00,
2013-06-10 04:40:00,57.4,53.2,29.83,WSW,253,4.0,4.0,86,0.00,,,0.00,0,Wunderground v.1.15,2013-06-10 11:40:00,
2013-06-10 04:50:00,57.1,53.3,29.86,WNW,290,1.0,1.0,87,0.00,,,0.00,0,Wunderground v.1.15,2013-06-10 11:50:00,
2013-06-10 04:59:00,56.4,53.2,29.86,WNW,289,8.0,8.0,89,0.00,,,0.00,0,Wunderground v.1.15,2013-06-10 11:59:00,
2013-06-10 05:05:00,56.2,53.6,29.84,West,271,2.0,8.0,91,0.00,,,0.00,0,Wunderground v.1.15,2013-06-10 12:05:00,
2013-06-10 05:10:00,56.2,53.9,29.87,SW,226,0.0,0.0,92,0.00,,,0.00,0,Wunderground v.1.15,2013-06-10 12:10:00,
2013-06-10 05:20:00,56.1,53.5,29.85,WNW,286,1.0,1.0,91,0.00,,,0.00,0,Wunderground v.1.15,2013-06-10 12:20:00,
2013-06-10 05:25:00,55.9,53.9,29.86,WNW,292,1.0,1.0,93,0.00,,,0.00,0,Wunderground v.1.15,2013-06-10 12:25:00,
2013-06-10 05:35:00,55.7,54.0,29.85,SW,233,0.0,2.0,94,0.00,,,0.00,0,Wunderground v.1.15,2013-06-10 12:35:00,
2013-06-10 05:40:00,55.7,54.3,29.86,SSE,165,0.0,0.0,95,0.00,,,0.00,0,Wunderground v.1.15,2013-06-10 12:40:00,
2013-06-10 05:50:00,55.6,53.9,29.85,SSW,205,1.0,1.0,94,0.00,,,0.00,0,Wunderground v.1.15,2013-06-10 12:50:00,
2013-06-10 05:55:00,55.6,53.6,29.85,SW,223,0.0,1.0,93,0.00,,,0.00,0,Wunderground v.1.15,2013-06-10 12:55:00,
2013-06-10 06:00:00,55.6,53.3,29.85,NW,310,1.0,1.0,92,0.00,,,0.00,0,Wunderground v.1.15,2013-06-10 13:00:00,
2013-06-10 06:10:00,55.6,51.8,29.85,SW,222,1.0,1.0,87,0.00,,,0.00,0,Wunderground v.1.15,2013-06-10 13:10:00,
2013-06-10 06:20:00,55.8,51.4,29.85,WNW,284,2.0,2.0,85,0.00,,,0.00,0,Wunderground v.1.15,2013-06-10 13:20:00,
2013-06-10 06:25:00,55.9,51.1,29.86,SSE,167,1.0,2.0,84,0.00,,,0.00,0,Wunderground v.1.15,2013-06-10 13:25:00,
2013-06-10 06:30:00,55.9,50.8,29.86,SE,135,0.0,0.0,83,0.00,,,0.00,0,Wunderground v.1.15,2013-06-10 13:30:00,
2013-06-10 06:40:00,56.0,51.2,29.86,WNW,303,2.0,2.0,84,0.00,,,0.00,0,Wunderground v.1.15,2013-06-10 13:40:00,
2013-06-10 06:49:00,56.4,51.3,29.86,West,271,0.0,0.0,83,0.00,,,0.00,0,Wunderground v.1.15,2013-06-10 13:49:00,
2013-06-10 06:55:00,56.7,52.2,29.86,WNW,286,7.0,7.0,85,0.00,,,0.00,0,Wunderground v.1.15,2013-06-10 13:55:00,
2013-06-10 07:00:00,56.9,52.1,29.87,West,280,2.0,2.0,84,0.00,,,0.00,0,Wunderground v.1.15,2013-06-10 14:00:00,
2013-06-10 07:10:00,57.2,52.4,29.87,WNW,303,5.0,5.0,84,0.00,,,0.00,0,Wunderground v.1.15,2013-06-10 14:10:00,
2013-06-10 07:20:00,57.2,52.1,29.87,WNW,289,5.0,5.0,83,0.00,,,0.00,0,Wunderground v.1.15,2013-06-10 14:20:00,
2013-06-10 07:25:00,57.2,51.8,29.87,WNW,283,6.0,6.0,82,0.00,,,0.00,0,Wunderground v.1.15,2013-06-10 14:25:00,
2013-06-10 07:30:00,57.0,51.6,29.87,SW,225,5.0,5.0,82,0.00,,,0.00,0,Wunderground v.1.15,2013-06-10 14:30:00,
2013-06-10 07:40:00,57.1,51.3,29.87,West,268,1.0,1.0,81,0.00,,,0.00,0,Wunderground v.1.15,2013-06-10 14:40:00,
2013-06-10 07:50:00,57.2,51.1,29.88,WNW,295,2.0,2.0,80,0.00,,,0.00,0,Wunderground v.1.15,2013-06-10 14:50:00,
2013-06-10 07:55:00,57.2,51.1,29.88,SW,235,1.0,2.0,80,0.00,,,0.00,0,Wunderground v.1.15,2013-06-10 14:55:00,
2013-06-10 08:00:00,57.3,51.2,29.88,SSW,212,0.0,0.0,80,0.00,,,0.00,0,Wunderground v.1.15,2013-06-10 15:00:00,
2013-06-10 08:10:00,57.5,51.4,29.88,WNW,292,4.0,4.0,80,0.00,,,0.00,0,Wunderground v.1.15,2013-06-10 15:10:00,
2013-06-10 08:15:00,57.5,51.4,29.88,WSW,252,1.0,4.0,80,0.00,,,0.00,0,Wunderground v.1.15,2013-06-10 15:15:00,
2013-06-10 08:20:00,57.7,51.6,29.88,WNW,298,3.0,3.0,80,0.00,,,0.00,0,Wunderground v.1.15,2013-06-10 15:20:00,
2013-06-10 08:30:00,58.1,52.0,29.89,WNW,302,1.0,1.0,80,0.00,,,0.00,0,Wunderground v.1.15,2013-06-10 15:30:00,
2013-06-10 08:40:00,58.2,51.7,29.89,WNW,289,5.0,5.0,79,0.00,,,0.00,0,Wunderground v.1.15,2013-06-10 15:40:00,
2013-06-10 08:45:00,58.3,51.8,29.89,WNW,284,1.0,5.0,79,0.00,,,0.00,0,Wunderground v.1.15,2013-06-10 15:45:00,
2013-06-10 08:50:00,58.4,51.9,29.89,WNW,287,6.0,6.0,79,0.00,,,0.00,0,Wunderground v.1.15,2013-06-10 15:50:00,
2013-06-10 09:00:00,59.8,52.9,29.90,WNW,287,4.0,4.0,78,0.00,,,0.00,0,Wunderground v.1.15,2013-06-10 16:00:00,
2013-06-10 09:10:00,61.4,53.8,29.90,SW,221,0.0,0.0,76,0.00,,,0.00,0,Wunderground v.1.15,2013-06-10 16:10:00,
2013-06-10 09:15:00,61.7,53.7,29.90,WNW,287,1.0,1.0,75,0.00,,,0.00,0,Wunderground v.1.15,2013-06-10 16:15:00,
2013-06-10 09:20:00,61.6,53.2,29.91,SW,235,3.0,3.0,74,0.00,,,0.00,0,Wunderground v.1.15,2013-06-10 16:20:00,
2013-06-10 09:30:00,62.0,53.6,29.91,WSW,253,1.0,1.0,74,0.00,,,0.00,0,Wunderground v.1.15,2013-06-10 16:30:00,
2013-06-10 09:35:00,62.4,53.3,29.91,WSW,245,3.0,3.0,72,0.00,,,0.00,0,Wunderground v.1.15,2013-06-10 16:35:00,
2013-06-10 09:45:00,63.1,54.7,29.91,West,274,1.0,2.0,74,0.00,,,0.00,0,Wunderground v.1.15,2013-06-10 16:45:00,
2013-06-10 09:50:00,63.6,55.9,29.91,West,277,4.0,4.0,76,0.00,,,0.00,0,Wunderground v.1.15,2013-06-10 16:50:00,
2013-06-10 10:00:00,63.6,55.2,29.92,West,266,2.0,2.0,74,0.00,,,0.00,0,Wunderground v.1.15,2013-06-10 17:00:00,
2013-06-10 10:10:00,63.2,55.5,29.92,WSW,250,1.0,1.0,76,0.00,,,0.00,0,Wunderground v.1.15,2013-06-10 17:10:00,
2013-06-10 10:15:00,63.0,55.3,29.92,SSW,199,0.0,1.0,76,0.00,,,0.00,0,Wunderground v.1.15,2013-06-10 17:15:00,
2013-06-10 10:20:00,62.8,55.1,29.92,South,181,0.0,0.0,76,0.00,,,0.00,0,Wunderground v.1.15,2013-06-10 17:20:00,
2013-06-10 10:30:00,62.3,54.6,29.91,SW,214,2.0,2.0,76,0.00,,,0.00,0,Wunderground v.1.15,2013-06-10 17:30:00,
2013-06-10 10:39:00,62.0,54.7,29.92,SSW,208,0.0,0.0,77,0.00,,,0.00,0,Wunderground v.1.15,2013-06-10 17:39:00,
2013-06-10 10:45:00,62.0,54.7,29.91,WSW,238,0.0,0.0,77,0.00,,,0.00,0,Wunderground v.1.15,2013-06-10 17:45:00,
2013-06-10 10:50:00,62.0,54.7,29.92,West,278,1.0,1.0,77,0.00,,,0.00,0,Wunderground v.1.15,2013-06-10 17:50:00,
2013-06-10 11:00:00,62.1,54.8,29.93,West,260,1.0,1.0,77,0.00,,,0.00,0,Wunderground v.1.15,2013-06-10 18:00:00,
2013-06-10 11:10:00,62.5,55.2,29.92,South,178,1.0,1.0,77,0.00,,,0.00,0,Wunderground v.1.15,2013-06-10 18:10:00,
2013-06-10 11:15:00,62.9,55.6,29.93,ENE,57,2.0,2.0,77,0.00,,,0.00,0,Wunderground v.1.15,2013-06-10 18:15:00,
2013-06-10 11:25:00,63.2,55.1,29.93,SSE,152,2.0,2.0,75,0.00,,,0.00,0,Wunderground v.1.15,2013-06-10 18:25:00,
2013-06-10 11:30:00,63.4,55.7,29.93,SW,236,0.0,0.0,76,0.00,,,0.00,0,Wunderground v.1.15,2013-06-10 18:30:00,
2013-06-10 11:40:00,64.9,52.0,29.93,SW,235,1.0,1.0,63,0.00,,,0.00,0,Wunderground v.1.15,2013-06-10 18:40:00,
2013-06-10 11:50:00,66.2,55.3,29.94,WSW,252,1.0,1.0,68,0.00,,,0.00,0,Wunderground v.1.15,2013-06-10 18:50:00,
2013-06-10 12:00:00,66.5,57.2,29.93,West,272,1.0,1.0,72,0.00,,,0.00,0,Wunderground v.1.15,2013-06-10 19:00:00,
2013-06-10 12:10:00,67.8,49.5,29.93,WSW,255,2.0,2.0,52,0.00,,,0.00,0,Wunderground v.1.15,2013-06-10 19:10:00,
2013-06-10 12:15:00,67.8,54.7,29.93,WNW,287,4.0,4.0,63,0.00,,,0.00,0,Wunderground v.1.15,2013-06-10 19:15:00,
2013-06-10 12:25:00,67.6,54.6,29.94,WNW,285,5.0,5.0,63,0.00,,,0.00,0,Wunderground v.1.15,2013-06-10 19:25:00,
2013-06-10 14:49:00,73.7,61.2,29.92,WNW,289,1.0,11.0,65,0.00,,,0.00,0,Wunderground v.1.15,2013-06-10 21:49:00,
2013-06-10 14:55:00,73.6,60.7,29.93,South,183,0.0,6.0,64,0.00,,,0.00,0,Wunderground v.1.15,2013-06-10 21:55:00,
2013-06-10 15:00:00,73.5,61.0,29.93,WSW,237,0.0,0.0,65,0.00,,,0.00,0,Wunderground v.1.15,2013-06-10 22:00:00,
2013-06-10 15:05:00,73.1,60.6,29.94,WNW,287,5.0,5.0,65,0.00,,,0.00,0,Wunderground v.1.15,2013-06-10 22:05:00,
2013-06-10 15:10:00,72.5,60.1,29.94,SSW,202,2.0,2.0,65,0.00,,,0.00,0,Wunderground v.1.15,2013-06-10 22:10:00,
2013-06-10 15:20:00,72.2,59.8,29.94,SSW,203,3.0,3.0,65,0.00,,,0.00,0,Wunderground v.1.15,2013-06-10 22:20:00,
2013-06-10 15:30:00,72.1,59.7,29.93,WNW,292,3.0,3.0,65,0.00,,,0.00,0,Wunderground v.1.15,2013-06-10 22:30:00,
2013-06-10 15:35:00,71.9,59.5,29.94,West,265,1.0,3.0,65,0.00,,,0.00,0,Wunderground v.1.15,2013-06-10 22:35:00,
2013-06-10 15:40:00,71.6,58.8,29.94,WNW,287,3.0,3.0,64,0.00,,,0.00,0,Wunderground v.1.15,2013-06-10 22:40:00,
2013-06-10 15:45:00,70.8,55.8,29.94,NW,310,6.0,6.0,59,0.00,,,0.00,0,Wunderground v.1.15,2013-06-10 22:45:00,
2013-06-10 15:50:00,69.6,55.1,29.94,NW,311,5.0,5.0,60,0.00,,,0.00,0,Wunderground v.1.15,2013-06-10 22:50:00,
2013-06-10 15:55:00,68.8,54.8,29.94,WNW,283,5.0,5.0,61,0.00,,,0.00,0,Wunderground v.1.15,2013-06-10 22:55:00,
2013-06-10 16:05:00,68.2,54.2,29.93,NNW,333,9.0,9.0,61,0.00,,,0.00,0,Wunderground v.1.15,2013-06-10 23:05:00,
2013-06-10 16:15:00,68.5,55.0,29.93,NW,323,8.0,10.0,62,0.00,,,0.00,0,Wunderground v.1.15,2013-06-10 23:15:00,
2013-06-10 16:20:00,69.2,55.6,29.93,NW,322,4.0,4.0,62,0.00,,,0.00,0,Wunderground v.1.15,2013-06-10 23:20:00,
2013-06-10 16:30:00,70.1,56.0,29.92,NW,315,4.0,4.0,61,0.00,,,0.00,0,Wunderground v.1.15,2013-06-10 23:30:00,
2013-06-10 16:35:00,70.9,56.3,29.92,NW,304,4.0,4.0,60,0.00,,,0.00,0,Wunderground v.1.15,2013-06-10 23:35:00,
2013-06-10 16:40:00,71.0,55.9,29.92,NW,320,12.0,12.0,59,0.00,,,0.00,0,Wunderground v.1.15,2013-06-10 23:40:00,
2013-06-10 16:50:00,70.0,55.5,29.92,NNW,327,7.0,7.0,60,0.00,,,0.00,0,Wunderground v.1.15,2013-06-10 23:50:00,
2013-06-10 16:55:00,69.9,55.8,29.92,NW,304,6.0,7.0,61,0.00,,,0.00,0,Wunderground v.1.15,2013-06-10 23:55:00,
2013-06-10 17:00:00,69.7,55.6,29.92,NW,307,3.0,3.0,61,0.00,,,0.00,0,Wunderground v.1.15,2013-06-11 00:00:00,
2013-06-10 17:10:00,69.4,55.8,29.92,NNW,335,8.0,8.0,62,0.00,,,0.00,0,Wunderground v.1.15,2013-06-11 00:10:00,
2013-06-10 17:20:00,69.4,55.8,29.92,NNW,336,10.0,10.0,62,0.00,,,0.00,0,Wunderground v.1.15,2013-06-11 00:20:00,
2013-06-10 17:25:00,69.0,55.0,29.92,NNW,348,10.0,10.0,61,0.00,,,0.00,0,Wunderground v.1.15,2013-06-11 00:25:00,
2013-06-10 17:35:00,69.0,55.0,29.92,North,351,7.0,7.0,61,0.00,,,0.00,0,Wunderground v.1.15,2013-06-11 00:35:00,
2013-06-10 17:45:00,68.7,54.7,29.92,NW,325,7.0,7.0,61,0.00,,,0.00,0,Wunderground v.1.15,2013-06-11 00:45:00,
2013-06-10 17:50:00,68.1,54.6,29.92,NW,310,8.0,8.0,62,0.00,,,0.00,0,Wunderground v.1.15,2013-06-11 00:50:00,
2013-06-10 18:00:00,68.8,54.8,29.92,North,354,4.0,4.0,61,0.00,,,0.00,0,Wunderground v.1.15,2013-06-11 01:00:00,
2013-06-10 18:05:00,68.6,54.2,29.93,NNW,337,4.0,4.0,60,0.00,,,0.00,0,Wunderground v.1.15,2013-06-11 01:05:00,
2013-06-10 18:15:00,68.3,54.3,29.93,NW,309,5.0,5.0,61,0.00,,,0.00,0,Wunderground v.1.15,2013-06-11 01:15:00,
2013-06-10 18:25:00,68.0,54.0,29.92,NW,325,4.0,4.0,61,0.00,,,0.00,0,Wunderground v.1.15,2013-06-11 01:25:00,
2013-06-10 18:35:00,68.3,54.3,29.92,West,281,3.0,3.0,61,0.00,,,0.00,0,Wunderground v.1.15,2013-06-11 01:35:00,
2013-06-10 18:40:00,68.2,53.3,29.92,NNW,334,3.0,3.0,59,0.00,,,0.00,0,Wunderground v.1.15,2013-06-11 01:40:00,
2013-06-10 18:50:00,68.0,54.0,29.92,NNW,329,5.0,5.0,61,0.00,,,0.00,0,Wunderground v.1.15,2013-06-11 01:50:00,
2013-06-10 18:55:00,67.8,53.9,29.92,NW,308,7.0,7.0,61,0.00,,,0.00,0,Wunderground v.1.15,2013-06-11 01:55:00,
2013-06-10 19:00:00,67.5,51.7,29.93,NNW,335,3.0,3.0,57,0.00,,,0.00,0,Wunderground v.1.15,2013-06-11 02:00:00,
2013-06-10 19:05:00,67.5,51.7,29.93,NNW,338,5.0,5.0,57,0.00,,,0.00,0,Wunderground v.1.15,2013-06-11 02:05:00,
2013-06-10 19:15:00,67.5,51.7,29.92,NW,312,3.0,3.0,57,0.00,,,0.00,0,Wunderground v.1.15,2013-06-11 02:15:00,
2013-06-10 19:25:00,66.9,52.6,29.92,WNW,303,3.0,6.0,60,0.00,,,0.00,0,Wunderground v.1.15,2013-06-11 02:25:00,
2013-06-10 19:30:00,66.6,52.3,29.92,NW,307,5.0,5.0,60,0.00,,,0.00,0,Wunderground v.1.15,2013-06-11 02:30:00,
2013-06-10 19:40:00,66.0,51.7,29.92,WNW,300,4.0,4.0,60,0.00,,,0.00,0,Wunderground v.1.15,2013-06-11 02:40:00,
2013-06-10 19:45:00,65.7,49.6,29.92,NNW,338,6.0,6.0,56,0.00,,,0.00,0,Wunderground v.1.15,2013-06-11 02:45:00,
2013-06-10 19:50:00,65.3,54.1,29.92,NW,323,5.0,5.0,67,0.00,,,0.00,0,Wunderground v.1.15,2013-06-11 02:50:00,
2013-06-10 19:55:00,65.0,49.4,29.92,NW,307,6.0,6.0,57,0.00,,,0.00,0,Wunderground v.1.15,2013-06-11 02:55:00,
2013-06-10 20:05:00,64.6,50.4,29.93,WNW,301,3.0,3.0,60,0.00,,,0.00,0,Wunderground v.1.15,2013-06-11 03:05:00,
2013-06-10 20:10:00,64.3,49.7,29.93,WNW,284,4.0,4.0,59,0.00,,,0.00,0,Wunderground v.1.15,2013-06-11 03:10:00,
2013-06-10 20:15:00,64.0,53.2,29.93,NW,320,3.0,4.0,68,0.00,,,0.00,0,Wunderground v.1.15,2013-06-11 03:15:00,
2013-06-10 20:25:00,63.2,54.4,29.93,NW,324,5.0,5.0,73,0.00,,,0.00,0,Wunderground v.1.15,2013-06-11 03:25:00,
2013-06-10 20:30:00,63.0,46.6,29.93,North,0,2.0,2.0,55,0.00,,,0.00,0,Wunderground v.1.15,2013-06-11 03:30:00,
2013-06-10 20:35:00,62.8,46.4,29.93,NW,313,3.0,3.0,55,0.00,,,0.00,0,Wunderground v.1.15,2013-06-11 03:35:00,
2013-06-10 20:40:00,62.7,46.3,29.92,North,350,3.0,3.0,55,0.00,,,0.00,0,Wunderground v.1.15,2013-06-11 03:40:00,
2013-06-10 20:45:00,62.5,46.1,29.93,North,350,3.0,3.0,55,0.00,,,0.00,0,Wunderground v.1.15,2013-06-11 03:45:00,
2013-06-10 20:50:00,62.3,45.9,29.93,WNW,297,4.0,4.0,55,0.00,,,0.00,0,Wunderground v.1.15,2013-06-11 03:50:00,
2013-06-10 21:00:00,61.9,48.7,29.93,North,354,3.0,3.0,62,0.00,,,0.00,0,Wunderground v.1.15,2013-06-11 04:00:00,
2013-06-10 21:05:00,61.5,53.9,29.93,North,357,1.0,3.0,76,0.00,,,0.00,0,Wunderground v.1.15,2013-06-11 04:05:00,
2013-06-10 21:10:00,61.3,51.8,29.94,NW,314,3.0,3.0,71,0.00,,,0.00,0,Wunderground v.1.15,2013-06-11 04:10:00,
2013-06-10 21:20:00,60.8,48.1,29.94,North,358,3.0,3.0,63,0.00,,,0.00,0,Wunderground v.1.15,2013-06-11 04:20:00,
2013-06-10 21:25:00,60.6,47.5,29.95,NW,321,3.0,3.0,62,0.00,,,0.00,0,Wunderground v.1.15,2013-06-11 04:25:00,
2013-06-10 21:35:00,60.4,47.3,29.95,NW,310,3.0,3.0,62,0.00,,,0.00,0,Wunderground v.1.15,2013-06-11 04:35:00,
2013-06-10 21:45:00,60.2,47.1,29.95,WNW,293,1.0,1.0,62,0.00,,,0.00,0,Wunderground v.1.15,2013-06-11 04:45:00,
2013-06-10 21:50:00,60.2,47.1,29.95,NW,309,3.0,3.0,62,0.00,,,0.00,0,Wunderground v.1.15,2013-06-11 04:50:00,
2013-06-10 22:00:00,59.7,46.7,29.95,WNW,300,1.0,1.0,62,0.00,,,0.00,0,Wunderground v.1.15,2013-06-11 05:00:00,
2013-06-10 22:05:00,59.4,46.8,29.95,WNW,295,3.0,3.0,63,0.00,,,0.00,0,Wunderground v.1.15,2013-06-11 05:05:00,
2013-06-10 22:10:00,59.1,48.5,29.95,WNW,295,5.0,5.0,68,0.00,,,0.00,0,Wunderground v.1.15,2013-06-11 05:10:00,
2013-06-10 22:20:00,58.6,48.1,29.96,NW,310,3.0,3.0,68,0.00,,,0.00,0,Wunderground v.1.15,2013-06-11 05:20:00,
2013-06-10 22:30:00,58.3,47.8,29.96,NNW,333,1.0,1.0,68,0.00,,,0.00,0,Wunderground v.1.15,2013-06-11 05:30:00,
2013-06-10 22:40:00,58.1,48.0,29.96,NNW,327,2.0,2.0,69,0.00,,,0.00,0,Wunderground v.1.15,2013-06-11 05:40:00,
2013-06-10 22:45:00,57.9,47.8,29.96,NW,308,4.0,4.0,69,0.00,,,0.00,0,Wunderground v.1.15,2013-06-11 05:45:00,
2013-06-10 22:50:00,57.7,47.2,29.96,NW,309,2.0,2.0,68,0.00,,,0.00,0,Wunderground v.1.15,2013-06-11 05:50:00,
2013-06-10 23:00:00,57.5,48.5,29.96,NW,311,2.0,2.0,72,0.00,,,0.00,0,Wunderground v.1.15,2013-06-11 06:00:00,
2013-06-10 23:10:00,57.3,50.8,29.96,NW,309,0.0,0.0,79,0.00,,,0.00,0,Wunderground v.1.15,2013-06-11 06:10:00,
2013-06-10 23:20:00,57.1,52.6,29.95,NW,309,0.0,0.0,85,0.00,,,0.00,0,Wunderground v.1.15,2013-06-11 06:20:00,
2013-06-10 23:30:00,56.9,53.1,29.96,NW,309,0.0,0.0,87,0.00,,,0.00,0,Wunderground v.1.15,2013-06-11 06:30:00,
2013-06-10 23:35:00,56.8,53.6,29.96,NW,309,0.0,0.0,89,0.00,,,0.00,0,Wunderground v.1.15,2013-06-11 06:35:00,
2013-06-10 23:40:00,56.7,54.4,29.96,NW,309,0.0,0.0,92,0.00,,,0.00,0,Wunderground v.1.15,2013-06-11 06:40:00,
2013-06-10 23:50:00,56.4,53.5,29.96,NW,309,0.0,0.0,90,0.00,,,0.00,0,Wunderground v.1.15,2013-06-11 06:50:00,
2013-06-10 23:55:00,56.4,52.6,29.95,NW,309,0.0,0.0,87,0.00,,,0.00,0,Wunderground v.1.15,2013-06-11 06:55:00,